Time;durP1;ratioP1;P1;durP2;ratioP2;P2;SDS_P1;SDS_P2;PMS_P1;PMS_P2;Temp;Humidity;BMP_temperature;BMP_pressure;BME280_temperature;BME280_humidity;BME280_pressure;Samples;Min_cycle;Max_cycle;Signal;HPM_P1;HPM_P2
2021/03/08 00:02:19;;;;;;;22.67;14.43;;;-1.60;89.00;;;;;;6175207;28;20055;-76
2021/03/08 00:05:20;;;;;;;19.83;15.10;;;-1.60;88.50;;;;;;6175167;28;20594;-76
2021/03/08 00:08:21;;;;;;;23.63;14.97;;;-1.70;88.50;;;;;;6173504;28;20042;-76
2021/03/08 00:11:23;;;;;;;23.47;16.00;;;-1.70;88.90;;;;;;6173713;28;20105;-75
2021/03/08 00:14:25;;;;;;;21.17;14.37;;;-1.70;89.30;;;;;;6174094;28;20089;-76
2021/03/08 00:17:26;;;;;;;21.60;15.80;;;-1.70;89.50;;;;;;6172663;28;20525;-75
2021/03/08 00:20:28;;;;;;;21.90;15.00;;;-1.80;89.30;;;;;;6172959;28;20055;-76
2021/03/08 00:23:29;;;;;;;24.47;17.43;;;-1.80;89.70;;;;;;6173329;28;20047;-76
2021/03/08 00:26:31;;;;;;;24.87;17.57;;;-1.80;89.70;;;;;;6173234;28;20405;-76
2021/03/08 00:29:33;;;;;;;20.63;13.60;;;-1.80;89.80;;;;;;6171728;28;20125;-75
2021/03/08 00:32:35;;;;;;;19.47;13.57;;;-1.80;90.00;;;;;;6172778;28;20390;-75
2021/03/08 00:35:36;;;;;;;20.33;14.30;;;-1.80;90.00;;;;;;6172735;28;20046;-76
2021/03/08 00:38:37;;;;;;;25.13;17.93;;;-1.70;90.20;;;;;;6173383;28;20070;-76
2021/03/08 00:41:38;;;;;;;19.83;14.77;;;-1.80;90.00;;;;;;6172671;28;20579;-76
2021/03/08 00:44:41;;;;;;;21.23;15.13;;;-1.80;90.10;;;;;;6173508;28;20129;-75
2021/03/08 00:47:42;;;;;;;20.50;15.20;;;-1.80;90.20;;;;;;6173309;28;20039;-75
2021/03/08 00:50:44;;;;;;;22.77;14.70;;;-1.90;90.20;;;;;;6173419;28;20050;-75
2021/03/08 00:53:45;;;;;;;25.50;14.70;;;-1.90;90.40;;;;;;6172989;28;20047;-75
2021/03/08 00:56:46;;;;;;;19.10;14.47;;;-1.90;90.30;;;;;;6172672;28;20042;-76
2021/03/08 00:59:48;;;;;;;21.33;14.50;;;-1.90;90.40;;;;;;6172418;28;20039;-76
2021/03/08 01:02:51;;;;;;;20.43;15.90;;;-1.90;90.50;;;;;;6172561;28;20497;-75
2021/03/08 01:05:52;;;;;;;18.00;13.20;;;-2.00;90.60;;;;;;6168684;28;20043;-76
2021/03/08 01:08:54;;;;;;;22.43;14.43;;;-2.00;90.70;;;;;;6148307;28;20054;-75
2021/03/08 01:11:55;;;;;;;22.80;14.97;;;-2.00;90.80;;;;;;6145907;28;20113;-75
2021/03/08 01:14:57;;;;;;;24.17;15.90;;;-2.00;90.80;;;;;;6148706;28;20067;-75
2021/03/08 01:17:59;;;;;;;24.63;16.77;;;-2.00;90.80;;;;;;6147993;28;20050;-76
2021/03/08 01:21:00;;;;;;;25.30;16.20;;;-2.00;90.80;;;;;;6147905;28;20567;-75
2021/03/08 01:24:02;;;;;;;20.80;15.37;;;-2.10;90.80;;;;;;6148089;28;20051;-75
2021/03/08 01:27:04;;;;;;;19.70;14.10;;;-2.00;90.80;;;;;;6148639;29;20051;-75
2021/03/08 01:30:08;;;;;;;20.87;14.90;;;-2.10;90.80;;;;;;6147606;28;20468;-75
2021/03/08 01:33:10;;;;;;;19.83;15.27;;;-2.10;90.80;;;;;;6149153;28;20191;-77
2021/03/08 01:36:11;;;;;;;18.80;13.77;;;-2.10;90.90;;;;;;6149125;28;20055;-77
2021/03/08 01:39:12;;;;;;;22.13;14.57;;;-2.10;90.90;;;;;;6149386;29;20492;-76
2021/03/08 01:42:14;;;;;;;22.27;16.70;;;-2.10;91.00;;;;;;6153848;28;20188;-77
2021/03/08 01:45:18;;;;;;;22.83;15.40;;;-2.10;91.00;;;;;;6154174;28;20051;-77
2021/03/08 01:48:19;;;;;;;23.63;15.07;;;-2.10;90.90;;;;;;6153305;28;20043;-77
2021/03/08 01:51:21;;;;;;;20.17;15.07;;;-2.10;90.90;;;;;;6153331;28;20047;-77
2021/03/08 01:54:22;;;;;;;24.77;17.63;;;-2.20;91.00;;;;;;6154143;29;20058;-77
2021/03/08 01:57:24;;;;;;;25.67;17.10;;;-2.20;91.00;;;;;;6153952;28;20051;-77
2021/03/08 02:00:28;;;;;;;23.17;17.87;;;-2.20;91.20;;;;;;6156989;28;20110;-77
2021/03/08 02:03:29;;;;;;;26.57;16.53;;;-2.20;91.10;;;;;;6160667;28;20520;-77
2021/03/08 02:06:31;;;;;;;23.07;16.13;;;-2.30;91.00;;;;;;6161697;29;20527;-78
2021/03/08 02:09:32;;;;;;;20.87;17.20;;;-2.20;91.20;;;;;;6158197;28;20054;-77
2021/03/08 02:12:44;;;;;;;24.03;17.60;;;-2.20;91.20;;;;;;6154457;28;20069;-77
2021/03/08 02:15:54;;;;;;;21.87;14.73;;;-2.20;91.30;;;;;;6155779;28;20122;-77
2021/03/08 02:19:01;;;;;;;31.30;17.30;;;-2.20;91.30;;;;;;6156120;29;20055;-77
2021/03/08 02:22:16;;;;;;;30.37;18.23;;;-2.20;91.40;;;;;;6155035;28;20051;-77
2021/03/08 02:25:34;;;;;;;24.43;16.33;;;-2.20;91.40;;;;;;6155861;28;20051;-77
2021/03/08 02:29:02;;;;;;;23.40;15.95;;;-2.20;91.40;;;;;;6154876;28;20058;-77
2021/03/08 02:32:08;;;;;;;20.30;15.35;;;-2.20;91.30;;;;;;6153609;28;20061;-77
2021/03/08 02:35:14;;;;;;;23.70;16.53;;;-2.20;91.30;;;;;;6154645;29;20179;-77
2021/03/08 02:38:19;;;;;;;23.83;17.20;;;-2.20;91.30;;;;;;6155556;28;20103;-77
2021/03/08 02:41:22;;;;;;;23.93;16.13;;;-2.30;91.30;;;;;;6156894;28;20418;-77
2021/03/08 02:44:28;;;;;;;29.60;17.17;;;-2.30;91.40;;;;;;6157919;28;20054;-77
2021/03/08 02:47:33;;;;;;;26.73;17.63;;;-2.30;91.40;;;;;;6157731;28;20107;-77
2021/03/08 02:50:36;;;;;;;22.43;15.47;;;-2.30;91.40;;;;;;6158112;29;20058;-77
2021/03/08 02:53:41;;;;;;;27.17;17.57;;;-2.40;91.40;;;;;;6151169;28;20059;-77
2021/03/08 02:56:44;;;;;;;21.73;16.87;;;-2.40;91.50;;;;;;6151765;28;20509;-78
2021/03/08 02:59:48;;;;;;;23.70;16.27;;;-2.40;91.50;;;;;;6151087;28;20640;-77
2021/03/08 03:02:52;;;;;;;21.53;18.23;;;-2.40;91.50;;;;;;6152629;29;20138;-77
2021/03/08 03:05:56;;;;;;;25.63;17.47;;;-2.50;91.50;;;;;;6151424;28;20043;-77
2021/03/08 03:08:59;;;;;;;24.90;16.47;;;-2.50;91.60;;;;;;6151251;28;20155;-77
2021/03/08 03:12:01;;;;;;;23.47;16.03;;;-2.50;91.50;;;;;;6151579;28;20138;-77
2021/03/08 03:15:06;;;;;;;29.10;19.37;;;-2.60;91.50;;;;;;6152025;29;20497;-77
2021/03/08 03:18:10;;;;;;;25.57;17.77;;;-2.50;91.60;;;;;;6150657;28;20054;-77
2021/03/08 03:21:12;;;;;;;24.50;17.57;;;-2.60;91.60;;;;;;6151281;28;20058;-77
2021/03/08 03:24:13;;;;;;;24.27;17.00;;;-2.60;91.60;;;;;;6150509;28;20058;-77
2021/03/08 03:27:16;;;;;;;30.10;18.90;;;-2.60;91.60;;;;;;6151551;28;20055;-77
2021/03/08 03:30:20;;;;;;;29.87;17.63;;;-2.60;91.70;;;;;;6151147;29;20533;-77
2021/03/08 03:33:23;;;;;;;21.97;18.07;;;-2.60;91.70;;;;;;6151492;28;20534;-77
2021/03/08 03:36:28;;;;;;;30.93;19.40;;;-2.70;91.70;;;;;;6151163;28;20134;-78
2021/03/08 03:39:30;;;;;;;30.37;21.67;;;-2.70;92.00;;;;;;6152246;28;20063;-78
2021/03/08 03:42:32;;;;;;;24.83;18.47;;;-2.70;91.80;;;;;;6152408;28;20051;-77
2021/03/08 03:45:33;;;;;;;28.53;17.57;;;-2.70;92.00;;;;;;6150814;28;20513;-78
2021/03/08 03:48:35;;;;;;;25.43;18.80;;;-2.70;92.00;;;;;;6151509;28;20048;-77
2021/03/08 03:51:37;;;;;;;29.63;19.63;;;-2.70;92.00;;;;;;6150774;28;20043;-77
2021/03/08 03:54:38;;;;;;;33.50;23.53;;;-2.60;92.30;;;;;;6150837;29;20063;-78
2021/03/08 03:57:45;;;;;;;29.63;23.20;;;-2.50;92.60;;;;;;6149710;28;20055;-77
2021/03/08 04:00:53;;;;;;;31.60;25.20;;;-2.40;92.70;;;;;;6150116;28;20051;-77
2021/03/08 04:04:00;;;;;;;29.07;19.53;;;-2.30;92.70;;;;;;6150605;28;20509;-77
2021/03/08 04:07:04;;;;;;;29.77;20.43;;;-2.30;92.40;;;;;;6151729;29;20528;-77
2021/03/08 04:10:10;;;;;;;31.13;20.60;;;-2.20;92.80;;;;;;6151294;28;20658;-77
2021/03/08 04:13:14;;;;;;;29.43;21.07;;;-2.10;92.90;;;;;;6151469;28;20137;-77
2021/03/08 04:16:17;;;;;;;28.53;17.87;;;-2.10;92.70;;;;;;6150505;28;20066;-77
2021/03/08 04:19:24;;;;;;;25.53;20.40;;;-2.10;92.70;;;;;;6150177;28;20047;-77
2021/03/08 04:22:26;;;;;;;29.73;18.80;;;-2.10;92.70;;;;;;6151085;28;20418;-78
2021/03/08 04:25:30;;;;;;;35.40;20.43;;;-2.10;92.70;;;;;;6149797;28;20059;-77
2021/03/08 04:28:31;;;;;;;27.73;20.77;;;-2.20;92.60;;;;;;6150504;28;20190;-77
2021/03/08 04:31:33;;;;;;;34.83;22.23;;;-2.20;92.50;;;;;;6149822;28;20464;-77
2021/03/08 04:34:36;;;;;;;33.37;20.20;;;-2.20;92.70;;;;;;6150885;29;20418;-77
2021/03/08 04:37:39;;;;;;;32.00;19.93;;;-2.20;93.00;;;;;;6149589;28;20071;-77
2021/03/08 04:40:41;;;;;;;28.53;21.40;;;-2.10;93.00;;;;;;6149293;28;20505;-77
2021/03/08 04:43:43;;;;;;;28.03;21.20;;;-2.10;92.90;;;;;;6150169;28;20421;-78
2021/03/08 04:46:46;;;;;;;25.73;19.23;;;-2.10;92.80;;;;;;6150954;29;20528;-77
2021/03/08 04:49:49;;;;;;;26.43;21.03;;;-2.20;92.60;;;;;;6150614;28;20047;-77
2021/03/08 04:52:53;;;;;;;25.27;19.20;;;-2.20;92.60;;;;;;6150029;28;20564;-77
2021/03/08 04:55:56;;;;;;;30.73;20.60;;;-2.30;92.60;;;;;;6150340;28;20070;-77
2021/03/08 04:58:57;;;;;;;24.93;21.03;;;-2.40;92.60;;;;;;6149769;29;20520;-77
2021/03/08 05:01:59;;;;;;;28.20;20.97;;;-2.40;92.70;;;;;;6149931;28;20142;-77
2021/03/08 05:05:04;;;;;;;27.20;20.40;;;-2.50;92.70;;;;;;6150117;28;20134;-77
2021/03/08 05:08:07;;;;;;;24.37;17.80;;;-2.50;92.80;;;;;;6150204;28;20442;-78
2021/03/08 05:11:11;;;;;;;28.17;22.20;;;-2.50;92.90;;;;;;6150098;29;20186;-77
2021/03/08 05:14:16;;;;;;;32.83;21.07;;;-2.40;93.00;;;;;;6149665;28;20132;-77
2021/03/08 05:17:18;;;;;;;25.97;21.30;;;-2.50;92.60;;;;;;6149670;28;20545;-77
2021/03/08 05:20:21;;;;;;;26.30;20.70;;;-2.50;92.60;;;;;;6149231;28;20444;-77
2021/03/08 05:23:23;;;;;;;26.83;19.83;;;-2.60;92.80;;;;;;6149320;28;20065;-77
2021/03/08 05:26:25;;;;;;;29.50;21.23;;;-2.60;92.70;;;;;;6149782;29;20142;-77
2021/03/08 05:29:27;;;;;;;29.90;21.27;;;-2.60;92.80;;;;;;6149824;28;20052;-77
2021/03/08 05:32:30;;;;;;;31.53;21.97;;;-2.70;92.90;;;;;;6150215;28;20130;-77
2021/03/08 05:35:35;;;;;;;37.57;23.13;;;-2.60;93.10;;;;;;6150091;28;20055;-77
2021/03/08 05:38:39;;;;;;;35.77;23.33;;;-2.50;93.40;;;;;;6148073;29;20058;-76
2021/03/08 05:41:54;;;;;;;36.63;22.83;;;-2.40;93.50;;;;;;6147024;28;20194;-77
2021/03/08 05:45:01;;;;;;;30.80;22.20;;;-2.30;93.30;;;;;;6146362;28;20412;-77
2021/03/08 05:48:47;;;;;;;36.30;24.30;;;-2.30;93.40;;;;;;6146538;28;20066;-77
2021/03/08 05:52:14;;;;;;;39.83;26.77;;;-2.20;93.30;;;;;;6147160;28;20058;-77
2021/03/08 05:55:57;;;;;;;36.83;24.70;;;-2.20;93.20;;;;;;6146447;28;20102;-77
2021/03/08 05:59:10;;;;;;;32.83;23.27;;;-2.10;93.40;;;;;;6145368;28;20065;-77
2021/03/08 06:02:47;;;;;;;30.13;22.43;;;-2.00;93.50;;;;;;6172409;28;20057;-77
2021/03/08 06:06:19;;;;;;;29.17;23.20;;;-2.00;93.30;;;;;;6181541;28;20138;-77
2021/03/08 06:09:23;;;;;;;31.17;22.87;;;-2.00;93.00;;;;;;6171490;28;20050;-78
2021/03/08 06:12:27;;;;;;;29.03;19.63;;;-2.00;92.90;;;;;;6170681;28;20496;-78
2021/03/08 06:15:33;;;;;;;36.77;20.97;;;-2.00;92.90;;;;;;6171219;28;20122;-78
2021/03/08 06:18:44;;;;;;;31.17;21.43;;;-2.00;92.90;;;;;;6172466;28;20141;-78
2021/03/08 06:21:46;;;;;;;32.47;23.23;;;-1.90;92.70;;;;;;6170893;28;20102;-78
2021/03/08 06:24:49;;;;;;;31.93;22.40;;;-1.90;92.70;;;;;;6171101;28;20077;-78
2021/03/08 06:27:52;;;;;;;28.17;21.43;;;-1.90;92.60;;;;;;6172892;28;20043;-78
2021/03/08 06:30:56;;;;;;;34.57;21.37;;;-1.80;92.60;;;;;;6176285;28;20089;-77
2021/03/08 06:33:58;;;;;;;29.50;21.70;;;-1.70;92.60;;;;;;6175870;28;20051;-78
2021/03/08 06:37:05;;;;;;;33.77;23.33;;;-1.70;92.40;;;;;;6175323;28;20541;-77
2021/03/08 06:40:10;;;;;;;22.33;17.03;;;-1.50;92.30;;;;;;6174951;28;20133;-78
2021/03/08 06:43:11;;;;;;;30.70;21.43;;;-1.40;92.20;;;;;;6175809;28;20060;-78
2021/03/08 06:46:14;;;;;;;30.60;20.27;;;-1.30;92.00;;;;;;6175844;28;20416;-78
2021/03/08 06:49:15;;;;;;;24.93;18.90;;;-1.10;91.70;;;;;;6175007;28;20125;-77
2021/03/08 06:52:18;;;;;;;29.33;20.43;;;-0.90;91.70;;;;;;6174990;28;20059;-77
2021/03/08 06:55:22;;;;;;;26.70;19.77;;;-0.80;91.10;;;;;;6174609;28;20062;-78
2021/03/08 06:58:23;;;;;;;21.97;16.90;;;-0.60;90.70;;;;;;6174468;28;20051;-77
2021/03/08 07:01:30;;;;;;;29.43;21.03;;;-0.40;90.30;;;;;;6173416;28;20094;-76
2021/03/08 07:04:31;;;;;;;26.10;18.27;;;-0.30;90.00;;;;;;6151184;28;20057;-77
2021/03/08 07:07:48;;;;;;;27.63;18.87;;;-0.10;89.50;;;;;;6149164;28;20134;-77
2021/03/08 07:10:50;;;;;;;24.90;18.20;;;0.10;88.50;;;;;;6151216;29;20063;-78
2021/03/08 07:13:51;;;;;;;31.63;18.57;;;0.30;87.30;;;;;;6148746;28;20047;-77
2021/03/08 07:16:53;;;;;;;21.37;14.97;;;0.50;86.30;;;;;;6148805;28;20728;-77
2021/03/08 07:19:55;;;;;;;21.40;15.00;;;0.60;85.20;;;;;;6148536;28;20043;-77
2021/03/08 07:22:56;;;;;;;24.17;17.53;;;0.70;84.10;;;;;;6149049;29;20047;-77
2021/03/08 07:26:06;;;;;;;25.50;17.63;;;0.90;83.10;;;;;;6148828;28;20454;-77
2021/03/08 07:29:08;;;;;;;25.07;18.63;;;1.10;82.20;;;;;;6149542;28;20145;-78
2021/03/08 07:32:12;;;;;;;27.40;16.37;;;1.30;81.20;;;;;;6194529;23;20042;-78
2021/03/08 07:35:13;;;;;;;24.17;17.13;;;1.50;80.00;;;;;;6206767;28;20046;-77
2021/03/08 07:38:28;;;;;;;28.50;16.57;;;1.60;78.50;;;;;;6206430;28;20042;-78
2021/03/08 07:41:30;;;;;;;18.97;15.03;;;1.80;78.10;;;;;;6206790;28;20098;-80
2021/03/08 07:44:32;;;;;;;20.33;15.43;;;2.00;76.80;;;;;;6205725;28;20038;-79
2021/03/08 07:47:33;;;;;;;19.30;15.30;;;2.00;75.90;;;;;;6205744;28;20082;-78
2021/03/08 07:50:35;;;;;;;19.43;15.60;;;2.20;75.80;;;;;;6183274;28;20540;-77
2021/03/08 07:53:37;;;;;;;17.97;14.17;;;2.30;75.10;;;;;;6180790;28;20053;-77
2021/03/08 07:56:40;;;;;;;17.40;15.30;;;2.40;73.40;;;;;;6179359;28;20077;-78
2021/03/08 07:59:42;;;;;;;19.67;15.70;;;2.50;72.70;;;;;;6178774;28;20042;-78
2021/03/08 08:02:43;;;;;;;20.83;16.47;;;2.70;72.20;;;;;;6178047;28;20086;-77
2021/03/08 08:05:45;;;;;;;16.13;14.13;;;2.80;71.30;;;;;;6178461;28;20073;-78
2021/03/08 08:08:48;;;;;;;22.47;14.37;;;2.90;71.00;;;;;;6180886;28;20063;-79
2021/03/08 08:11:52;;;;;;;16.63;13.10;;;3.10;70.60;;;;;;6182181;28;20645;-78
2021/03/08 08:14:56;;;;;;;15.77;14.13;;;3.30;69.40;;;;;;6181730;28;20449;-78
2021/03/08 08:18:00;;;;;;;18.07;14.57;;;3.40;68.90;;;;;;6187262;28;20047;-78
2021/03/08 08:21:01;;;;;;;18.57;14.73;;;3.50;68.10;;;;;;6185140;28;20077;-78
2021/03/08 08:24:05;;;;;;;17.80;13.23;;;3.70;67.90;;;;;;6181654;28;20074;-79
2021/03/08 08:27:11;;;;;;;15.97;13.27;;;3.90;67.00;;;;;;6183921;28;20412;-78
2021/03/08 08:30:16;;;;;;;16.33;13.23;;;4.10;66.40;;;;;;6187726;28;20039;-79
2021/03/08 08:33:27;;;;;;;16.27;13.23;;;4.10;66.10;;;;;;6189923;28;20067;-78
2021/03/08 08:36:29;;;;;;;15.85;11.57;;;4.30;65.20;;;;;;6191190;28;20423;-80
2021/03/08 08:39:30;;;;;;;15.95;14.25;;;4.50;65.50;;;;;;6190228;28;20043;-79
2021/03/08 08:42:34;;;;;;;18.95;13.02;;;4.60;64.90;;;;;;6190722;28;20051;-78
2021/03/08 08:45:35;;;;;;;16.70;12.48;;;4.90;63.30;;;;;;6189128;28;20046;-79
2021/03/08 08:49:04;;;;;;;17.27;13.85;;;5.00;62.70;;;;;;6189983;28;20105;-78
2021/03/08 08:52:06;;;;;;;11.50;10.18;;;5.00;63.00;;;;;;6183469;28;20043;-79
2021/03/08 08:55:08;;;;;;;13.63;10.68;;;5.10;62.10;;;;;;6189324;28;20074;-80
2021/03/08 08:58:21;;;;;;;19.02;11.15;;;5.30;61.50;;;;;;6186991;28;20044;-79
2021/03/08 09:04:43;;;;;;;14.50;10.48;;;5.50;60.00;;;;;;6177850;28;22824;-77
2021/03/08 09:07:44;;;;;;;16.83;10.05;;;5.50;59.20;;;;;;6177769;28;20078;-80
2021/03/08 09:10:46;;;;;;;14.07;11.95;;;5.80;60.00;;;;;;6184416;28;20799;-79
2021/03/08 09:14:23;;;;;;;12.57;9.52;;;6.00;58.20;;;;;;6184389;28;20046;-79
2021/03/08 09:17:28;;;;;;;14.32;11.15;;;6.10;58.50;;;;;;6173109;28;20053;-77
2021/03/08 09:20:30;;;;;;;15.55;10.50;;;6.40;57.20;;;;;;6183898;28;20074;-77
2021/03/08 09:23:32;;;;;;;12.80;11.35;;;6.50;56.20;;;;;;6179438;28;20070;-80
2021/03/08 09:26:38;;;;;;;12.02;9.35;;;6.70;55.50;;;;;;6186498;28;20047;-78
2021/03/08 09:33:01;;;;;;;15.05;10.88;;;6.70;55.00;;;;;;6178714;28;20054;-80
2021/03/08 09:36:02;;;;;;;12.90;9.38;;;6.60;54.10;;;;;;6183303;28;20577;-78
2021/03/08 09:39:05;;;;;;;14.27;9.55;;;6.70;55.50;;;;;;6175592;28;20082;-80
2021/03/08 09:42:10;;;;;;;14.57;9.90;;;6.70;54.90;;;;;;6175845;28;20051;-80
2021/03/08 09:45:16;;;;;;;10.15;8.98;;;7.10;55.80;;;;;;6180417;28;20070;-78
2021/03/08 09:48:19;;;;;;;11.63;9.55;;;7.50;54.50;;;;;;6174607;28;20051;-80
2021/03/08 09:51:22;;;;;;;12.23;8.90;;;7.70;53.40;;;;;;6175136;28;20059;-80
2021/03/08 09:54:23;;;;;;;11.00;9.95;;;7.90;53.20;;;;;;6171517;28;20066;-79
2021/03/08 09:57:35;;;;;;;13.95;10.23;;;7.80;51.80;;;;;;6172232;28;20492;-79
2021/03/08 10:00:37;;;;;;;13.75;10.05;;;7.90;53.20;;;;;;6182324;28;20050;-79
2021/03/08 10:03:40;;;;;;;13.95;9.68;;;8.20;52.00;;;;;;6183833;28;20121;-81
2021/03/08 10:06:42;;;;;;;12.35;9.75;;;8.40;52.10;;;;;;6187422;28;20057;-80
2021/03/08 10:09:43;;;;;;;16.02;10.23;;;8.80;51.20;;;;;;6186671;28;20039;-81
2021/03/08 10:12:45;;;;;;;10.48;9.45;;;9.30;50.30;;;;;;6180280;28;20055;-82
2021/03/08 10:15:47;;;;;;;13.00;9.43;;;9.40;50.30;;;;;;6183575;28;20066;-80
2021/03/08 10:18:50;;;;;;;12.45;9.90;;;9.30;48.20;;;;;;6178426;28;20074;-81
2021/03/08 10:21:53;;;;;;;10.50;9.13;;;9.30;49.40;;;;;;6174500;28;20047;-80
2021/03/08 10:24:54;;;;;;;10.88;9.65;;;9.30;48.00;;;;;;6176598;28;20054;-80
2021/03/08 10:27:57;;;;;;;13.05;9.27;;;9.10;48.80;;;;;;6175885;28;20085;-79
2021/03/08 10:30:58;;;;;;;13.10;7.60;;;9.10;48.20;;;;;;6185936;28;20055;-80
2021/03/08 10:34:07;;;;;;;9.55;8.38;;;9.20;47.60;;;;;;6184104;28;20070;-81
2021/03/08 10:37:10;;;;;;;8.80;7.68;;;9.30;48.00;;;;;;6180277;28;20042;-79
2021/03/08 10:40:15;;;;;;;10.85;6.32;;;9.60;45.80;;;;;;6174655;28;20070;-80
2021/03/08 10:43:21;;;;;;;11.32;8.52;;;9.70;46.30;;;;;;6178507;28;20051;-80
2021/03/08 10:46:29;;;;;;;16.42;7.22;;;9.90;45.70;;;;;;6173653;28;20039;-80
2021/03/08 10:49:47;;;;;;;8.18;6.90;;;9.60;45.90;;;;;;6170913;28;20043;-80
2021/03/08 10:53:03;;;;;;;9.32;6.47;;;9.50;46.60;;;;;;6172263;28;20365;-80
2021/03/08 10:56:19;;;;;;;7.25;6.05;;;9.80;46.00;;;;;;6174257;28;20792;-80
2021/03/08 10:59:26;;;;;;;6.57;5.63;;;9.50;46.00;;;;;;6171695;28;20047;-78
2021/03/08 11:02:35;;;;;;;8.45;5.60;;;9.20;45.90;;;;;;6177642;28;20046;-79
2021/03/08 11:05:37;;;;;;;8.45;5.85;;;9.30;46.60;;;;;;6182583;28;20177;-80
2021/03/08 11:08:40;;;;;;;7.47;5.70;;;9.50;45.40;;;;;;6176674;28;20071;-79
2021/03/08 11:11:45;;;;;;;4.18;3.78;;;9.40;45.70;;;;;;6171455;28;20043;-79
2021/03/08 11:14:47;;;;;;;6.72;4.82;;;9.20;45.20;;;;;;6174994;28;20130;-79
2021/03/08 11:17:49;;;;;;;6.70;5.43;;;9.20;46.20;;;;;;6180409;28;20093;-79
2021/03/08 11:20:51;;;;;;;4.68;3.80;;;9.30;45.40;;;;;;6176868;28;20050;-80
2021/03/08 11:23:53;;;;;;;7.10;4.10;;;9.20;44.20;;;;;;6173110;28;20097;-80
2021/03/08 11:27:24;;;;;;;10.07;4.40;;;9.10;44.90;;;;;;6172110;28;20074;-79
2021/03/08 11:30:26;;;;;;;7.32;5.75;;;8.90;45.70;;;;;;6129244;28;20452;-79
2021/03/08 11:33:35;;;;;;;9.65;5.13;;;9.00;45.40;;;;;;6160814;28;20101;-79
2021/03/08 11:36:38;;;;;;;5.97;5.38;;;9.20;45.70;;;;;;6153629;28;20067;-79
2021/03/08 11:39:43;;;;;;;6.65;5.15;;;9.30;45.30;;;;;;6154333;28;20043;-79
2021/03/08 11:42:45;;;;;;;6.13;5.45;;;9.40;44.60;;;;;;6152088;29;20079;-79
2021/03/08 11:45:47;;;;;;;8.15;5.15;;;9.30;44.80;;;;;;6152079;28;20086;-79
2021/03/08 11:48:48;;;;;;;5.80;4.72;;;9.50;45.60;;;;;;6161846;28;20524;-80
2021/03/08 11:51:50;;;;;;;6.05;5.45;;;10.00;44.60;;;;;;6169075;28;20062;-80
2021/03/08 11:54:52;;;;;;;5.30;4.55;;;10.00;42.60;;;;;;6170658;28;20058;-79
2021/03/08 11:57:54;;;;;;;7.22;4.65;;;9.80;42.40;;;;;;6153264;28;20035;-77
2021/03/08 12:00:55;;;;;;;6.55;4.97;;;9.60;43.40;;;;;;6143995;28;20072;-80
2021/03/08 12:03:56;;;;;;;5.35;4.88;;;9.60;43.20;;;;;;6154659;28;20046;-80
2021/03/08 12:06:58;;;;;;;6.03;4.80;;;9.70;43.60;;;;;;6152605;28;20069;-80
2021/03/08 12:10:00;;;;;;;8.65;4.70;;;9.70;43.30;;;;;;6172864;28;20091;-79
2021/03/08 12:13:01;;;;;;;6.85;5.10;;;10.10;43.50;;;;;;6179606;28;20134;-80
2021/03/08 12:16:02;;;;;;;5.72;5.13;;;10.20;42.90;;;;;;6179156;28;20053;-80
2021/03/08 12:19:04;;;;;;;6.95;5.55;;;10.10;42.20;;;;;;6168209;28;20043;-79
2021/03/08 12:22:06;;;;;;;7.18;5.15;;;9.90;42.20;;;;;;6143812;28;20047;-80
2021/03/08 12:25:08;;;;;;;7.28;5.95;;;9.60;42.50;;;;;;6147034;28;20078;-79
2021/03/08 12:28:10;;;;;;;7.93;5.38;;;9.60;42.80;;;;;;6145270;28;20075;-80
2021/03/08 12:31:12;;;;;;;7.05;5.88;;;9.70;43.20;;;;;;6150414;29;20055;-80
2021/03/08 12:34:13;;;;;;;7.43;5.45;;;9.90;43.20;;;;;;6138253;28;20043;-80
2021/03/08 12:37:21;;;;;;;9.93;6.05;;;10.10;41.80;;;;;;6160746;28;20058;-80
2021/03/08 12:40:22;;;;;;;9.60;6.25;;;10.10;42.00;;;;;;6168440;28;20046;-80
2021/03/08 12:43:24;;;;;;;7.80;4.65;;;10.20;42.10;;;;;;6319316;23;20461;-80
2021/03/08 12:46:25;;;;;;;6.18;5.57;;;10.50;41.10;;;;;;6202084;28;20054;-81
2021/03/08 12:49:27;;;;;;;5.78;5.20;;;10.30;41.00;;;;;;6196489;28;20060;-79
2021/03/08 12:52:29;;;;;;;7.72;5.75;;;10.50;41.80;;;;;;6186399;28;20047;-80
2021/03/08 12:55:30;;;;;;;7.45;6.22;;;10.50;40.90;;;;;;6183194;28;20129;-80
2021/03/08 12:58:32;;;;;;;10.00;5.28;;;10.40;41.30;;;;;;6191970;28;20054;-80
2021/03/08 13:01:33;;;;;;;7.80;5.75;;;10.10;41.90;;;;;;6201363;28;20176;-80
2021/03/08 13:04:35;;;;;;;6.97;6.10;;;9.90;42.70;;;;;;6188113;28;20042;-81
2021/03/08 13:07:37;;;;;;;10.38;6.70;;;9.90;42.20;;;;;;6194769;28;20049;-80
2021/03/08 13:10:38;;;;;;;11.70;5.93;;;9.90;43.10;;;;;;6186717;28;20527;-82
2021/03/08 13:13:40;;;;;;;8.05;5.15;;;10.20;42.40;;;;;;6191010;28;20133;-81
2021/03/08 13:16:41;;;;;;;8.30;5.55;;;10.40;41.20;;;;;;6183378;28;20094;-81
2021/03/08 13:19:42;;;;;;;5.97;4.93;;;10.40;41.10;;;;;;6198259;28;20051;-81
2021/03/08 13:22:45;;;;;;;7.32;4.93;;;10.60;40.80;;;;;;6197325;28;20054;-80
2021/03/08 13:25:46;;;;;;;8.98;6.53;;;11.00;40.30;;;;;;6187810;28;20761;-81
2021/03/08 13:28:49;;;;;;;6.70;4.95;;;11.20;39.70;;;;;;6187500;28;20039;-79
2021/03/08 13:31:50;;;;;;;7.00;5.78;;;11.20;39.50;;;;;;6191256;28;20125;-81
2021/03/08 13:34:51;;;;;;;8.63;5.50;;;11.00;40.00;;;;;;6174726;28;20058;-81
2021/03/08 13:37:54;;;;;;;5.70;5.15;;;11.20;39.10;;;;;;6197387;28;20070;-79
2021/03/08 13:40:55;;;;;;;8.48;6.07;;;11.20;40.50;;;;;;6198278;28;20049;-81
2021/03/08 13:43:56;;;;;;;8.45;5.28;;;11.20;39.10;;;;;;6197274;28;20046;-81
2021/03/08 13:46:58;;;;;;;5.35;4.25;;;10.90;39.20;;;;;;6196989;28;20150;-82
2021/03/08 13:49:59;;;;;;;6.75;5.55;;;10.70;40.10;;;;;;6197208;28;20050;-80
2021/03/08 13:53:01;;;;;;;5.75;5.15;;;10.60;41.60;;;;;;6195799;28;20113;-79
2021/03/08 13:56:03;;;;;;;5.97;4.78;;;11.00;40.20;;;;;;6204270;28;20089;-80
2021/03/08 13:59:04;;;;;;;6.97;5.20;;;11.20;40.40;;;;;;6207461;28;20073;-80
2021/03/08 14:02:06;;;;;;;7.28;3.97;;;11.00;39.60;;;;;;6208057;28;20043;-79
2021/03/08 14:05:08;;;;;;;7.18;4.80;;;10.70;40.00;;;;;;6206161;28;20058;-80
2021/03/08 14:08:11;;;;;;;12.38;5.82;;;10.60;39.90;;;;;;6203421;28;20042;-80
2021/03/08 14:11:12;;;;;;;5.68;4.53;;;10.50;41.20;;;;;;6200572;28;20136;-78
2021/03/08 14:14:13;;;;;;;5.93;5.20;;;10.30;40.40;;;;;;6189802;28;20054;-78
2021/03/08 14:17:15;;;;;;;8.05;4.55;;;10.20;41.00;;;;;;6186908;28;20497;-79
2021/03/08 14:20:16;;;;;;;5.30;4.68;;;10.10;40.30;;;;;;6199215;28;20050;-79
2021/03/08 14:23:18;;;;;;;7.07;4.50;;;10.00;39.10;;;;;;6201824;28;20516;-79
2021/03/08 14:26:20;;;;;;;7.80;3.88;;;10.00;38.70;;;;;;6200310;28;20449;-80
2021/03/08 14:29:21;;;;;;;5.88;4.07;;;10.00;38.10;;;;;;6196317;28;20059;-79
2021/03/08 14:32:23;;;;;;;7.30;4.18;;;9.90;38.20;;;;;;6196629;28;20050;-79
2021/03/08 14:35:24;;;;;;;4.90;4.50;;;9.70;38.60;;;;;;6204674;28;20050;-80
2021/03/08 14:38:26;;;;;;;7.43;4.55;;;9.60;38.40;;;;;;6196719;28;20110;-80
2021/03/08 14:41:28;;;;;;;5.40;4.47;;;9.60;38.00;;;;;;6179088;28;20049;-79
2021/03/08 14:44:29;;;;;;;5.18;4.43;;;9.50;38.80;;;;;;6187801;28;20160;-79
2021/03/08 14:47:30;;;;;;;5.32;4.22;;;9.60;39.70;;;;;;6196193;28;20500;-79
2021/03/08 14:50:32;;;;;;;7.72;4.60;;;9.70;39.20;;;;;;6198445;28;20046;-79
2021/03/08 14:53:34;;;;;;;5.85;4.72;;;9.60;39.30;;;;;;6202840;28;20563;-80
2021/03/08 14:56:35;;;;;;;6.32;4.63;;;9.60;40.00;;;;;;6206912;28;20045;-78
2021/03/08 14:59:37;;;;;;;5.38;4.35;;;9.80;42.40;;;;;;6202238;28;20043;-79
2021/03/08 15:02:38;;;;;;;6.90;4.68;;;9.70;40.40;;;;;;6195732;28;20054;-78
2021/03/08 15:05:40;;;;;;;4.65;4.10;;;9.50;39.80;;;;;;6201603;28;20070;-79
2021/03/08 15:08:42;;;;;;;7.60;5.45;;;9.50;39.30;;;;;;6188816;28;20058;-78
2021/03/08 15:11:43;;;;;;;12.02;6.15;;;9.40;41.50;;;;;;6200296;28;20600;-81
2021/03/08 15:14:45;;;;;;;9.90;6.50;;;9.40;42.20;;;;;;6196798;28;20046;-79
2021/03/08 15:17:46;;;;;;;8.10;4.72;;;9.20;42.40;;;;;;6198683;28;20054;-79
2021/03/08 15:20:48;;;;;;;6.22;5.50;;;9.10;42.00;;;;;;6188154;28;20591;-79
2021/03/08 15:23:50;;;;;;;6.82;5.65;;;9.00;42.10;;;;;;6198060;28;20121;-79
2021/03/08 15:26:51;;;;;;;8.10;5.65;;;9.00;43.60;;;;;;6188860;28;20046;-78
2021/03/08 15:29:52;;;;;;;7.07;4.90;;;9.00;44.60;;;;;;6198771;28;20121;-78
2021/03/08 15:32:54;;;;;;;6.43;5.82;;;8.90;44.30;;;;;;6190701;28;20046;-79
2021/03/08 15:35:55;;;;;;;6.57;5.88;;;8.80;45.10;;;;;;6195351;28;20077;-79
2021/03/08 15:38:58;;;;;;;6.90;5.22;;;8.80;45.70;;;;;;6197478;28;20259;-78
2021/03/08 15:42:01;;;;;;;7.13;5.03;;;8.70;46.00;;;;;;6193789;28;20047;-79
2021/03/08 15:45:03;;;;;;;6.50;5.88;;;8.70;45.80;;;;;;6191075;28;20046;-79
2021/03/08 15:48:05;;;;;;;7.70;6.28;;;8.60;45.90;;;;;;6186246;28;20054;-78
2021/03/08 15:51:07;;;;;;;9.30;6.45;;;8.50;46.70;;;;;;6204230;28;20076;-78
2021/03/08 15:54:09;;;;;;;8.05;5.50;;;8.40;47.00;;;;;;6201074;28;20736;-79